createdAt,value
2019-02-05T00:00:58.485Z,932.69
2019-02-05T00:01:58.591Z,932.71
2019-02-05T00:02:58.513Z,932.69
2019-02-05T00:03:58.513Z,932.69
2019-02-05T00:04:58.537Z,932.77
2019-02-05T00:05:58.561Z,932.78
2019-02-05T00:06:58.671Z,932.76
2019-02-05T00:07:58.585Z,932.81
2019-02-05T00:08:58.709Z,932.83
2019-02-05T00:09:58.620Z,932.90
2019-02-05T00:10:58.626Z,932.89
2019-02-05T00:11:58.734Z,932.90
2019-02-05T00:12:58.706Z,932.91
2019-02-05T00:13:58.681Z,932.96
2019-02-05T00:14:58.697Z,932.97
2019-02-05T00:15:58.708Z,932.99
2019-02-05T00:16:58.898Z,932.96
2019-02-05T00:17:58.719Z,932.99
2019-02-05T00:18:58.723Z,932.92
2019-02-05T00:19:58.867Z,932.94
2019-02-05T00:20:58.767Z,932.91
2019-02-05T00:21:58.969Z,932.90
2019-02-05T00:22:58.796Z,932.92
2019-02-05T00:23:58.796Z,932.87
2019-02-05T00:24:58.806Z,932.95
2019-02-05T00:26:05.929Z,932.91
2019-02-05T00:26:58.932Z,932.89
2019-02-05T00:27:58.872Z,932.90
2019-02-05T00:28:58.881Z,932.89
2019-02-05T00:29:59.004Z,932.90
2019-02-05T00:30:58.897Z,932.95
2019-02-05T00:31:59.181Z,932.87
2019-02-05T00:32:59.054Z,932.92
2019-02-05T00:33:58.969Z,932.96
2019-02-05T00:34:59.074Z,932.97
2019-02-05T00:35:58.962Z,932.97
2019-02-05T00:36:59.211Z,933.03
2019-02-05T00:37:59.008Z,933.08
2019-02-05T00:38:59.013Z,933.03
2019-02-05T00:39:59.027Z,933.05
2019-02-05T00:40:59.045Z,933.07
2019-02-05T00:41:59.232Z,933.08
2019-02-05T00:42:59.064Z,933.09
2019-02-05T00:43:59.080Z,933.10
2019-02-05T00:44:59.210Z,933.07
2019-02-05T00:45:59.090Z,933.08
2019-02-05T00:46:59.228Z,933.09
2019-02-05T00:47:59.135Z,933.13
2019-02-05T00:48:59.157Z,933.12
2019-02-05T00:49:59.170Z,933.12
2019-02-05T00:50:59.185Z,933.13
2019-02-05T00:51:59.293Z,933.06
2019-02-05T00:52:59.200Z,933.15
2019-02-05T00:53:59.198Z,933.21
2019-02-05T00:54:59.235Z,933.18
2019-02-05T00:55:59.357Z,933.16
2019-02-05T00:56:59.419Z,933.24
2019-02-05T00:57:59.306Z,933.21
2019-02-05T00:58:59.286Z,933.21
2019-02-05T00:59:59.424Z,933.25
2019-02-05T01:00:59.312Z,933.23
2019-02-05T01:01:59.476Z,933.24
2019-02-05T01:02:59.347Z,933.24
2019-02-05T01:03:59.358Z,933.23
2019-02-05T01:04:59.384Z,933.27
2019-02-05T01:05:59.368Z,933.25
2019-02-05T01:06:59.446Z,933.22
2019-02-05T01:07:59.536Z,933.23
2019-02-05T01:08:59.441Z,933.18
2019-02-05T01:09:59.538Z,933.20
2019-02-05T01:10:59.451Z,933.20
2019-02-05T01:11:59.481Z,933.18
2019-02-05T01:12:59.491Z,933.20
2019-02-05T01:13:59.502Z,933.17
2019-02-05T01:14:59.650Z,933.22
2019-02-05T01:15:59.505Z,933.18
2019-02-05T01:16:59.552Z,933.14
2019-02-05T01:17:59.553Z,933.18
2019-02-05T01:18:59.585Z,933.17
2019-02-05T01:19:59.687Z,933.19
2019-02-05T01:20:59.589Z,933.16
2019-02-05T01:21:59.603Z,933.19
2019-02-05T01:22:59.730Z,933.17
2019-02-05T01:23:59.626Z,933.21
2019-02-05T01:24:59.874Z,933.27
2019-02-05T01:25:59.775Z,933.27
2019-02-05T01:26:59.682Z,933.25
2019-02-05T01:27:59.709Z,933.27
2019-02-05T01:28:59.812Z,933.32
2019-02-05T01:29:59.756Z,933.32
2019-02-05T01:30:59.796Z,933.32
2019-02-05T01:31:59.738Z,933.34
2019-02-05T01:32:59.763Z,933.37
2019-02-05T01:33:59.758Z,933.38
2019-02-05T01:34:59.898Z,933.37
2019-02-05T01:36:00.026Z,933.39
2019-02-05T01:36:59.828Z,933.38
2019-02-05T01:37:59.845Z,933.33
2019-02-05T01:38:59.955Z,933.34
2019-02-05T01:39:59.865Z,933.36
2019-02-05T01:41:00.006Z,933.33
2019-02-05T01:41:59.994Z,933.31
2019-02-05T01:42:59.899Z,933.29
2019-02-05T01:44:00.026Z,933.31
2019-02-05T01:44:59.947Z,933.30
2019-02-05T01:46:00.154Z,933.29
2019-02-05T01:46:59.948Z,933.29
2019-02-05T01:48:00.079Z,933.30
2019-02-05T01:49:00.033Z,933.27
2019-02-05T01:50:00.060Z,933.30
2019-02-05T01:51:00.138Z,933.29
2019-02-05T01:52:00.027Z,933.27
2019-02-05T01:53:00.043Z,933.26
2019-02-05T01:54:00.096Z,933.28
2019-02-05T01:55:00.321Z,933.30
2019-02-05T01:56:00.237Z,933.27
2019-02-05T01:57:00.107Z,933.27
2019-02-05T01:58:00.099Z,933.25
2019-02-05T01:59:00.227Z,933.25
2019-02-05T02:00:00.322Z,933.21
2019-02-05T02:01:00.324Z,933.19
2019-02-05T02:02:00.148Z,933.14
2019-02-05T02:03:00.177Z,933.13
2019-02-05T02:04:00.170Z,933.05
2019-02-05T02:05:00.190Z,933.02
2019-02-05T02:06:00.380Z,932.98
2019-02-05T02:07:00.228Z,933.00
2019-02-05T02:08:00.254Z,933.02
2019-02-05T02:09:00.366Z,932.96
2019-02-05T02:10:00.404Z,933.03
2019-02-05T02:11:00.386Z,933.04
2019-02-05T02:12:00.276Z,933.05
2019-02-05T02:13:00.306Z,933.03
2019-02-05T02:14:00.335Z,933.08
2019-02-05T02:15:00.351Z,933.04
2019-02-05T02:16:00.605Z,933.09
2019-02-05T02:17:00.372Z,933.06
2019-02-05T02:18:00.415Z,933.11
2019-02-05T02:19:00.509Z,933.13
2019-02-05T02:20:00.459Z,933.09
2019-02-05T02:21:00.473Z,933.09
2019-02-05T02:22:00.537Z,933.07
2019-02-05T02:23:00.436Z,933.01
2019-02-05T02:24:00.602Z,933.02
2019-02-05T02:25:00.469Z,933.00
2019-02-05T02:26:00.591Z,933.03
2019-02-05T02:27:00.605Z,933.02
2019-02-05T02:28:00.499Z,932.95
2019-02-05T02:29:05.017Z,933.00
2019-02-05T02:30:00.545Z,932.95
2019-02-05T02:31:00.539Z,932.94
2019-02-05T02:32:00.586Z,932.99
2019-02-05T02:33:00.616Z,932.98
2019-02-05T02:34:05.159Z,932.97
2019-02-05T02:35:00.612Z,932.95
2019-02-05T02:36:00.621Z,932.88
2019-02-05T02:37:00.739Z,932.79
2019-02-05T02:38:00.660Z,932.77
2019-02-05T02:39:00.920Z,932.76
2019-02-05T02:40:00.665Z,932.80
2019-02-05T02:41:00.672Z,932.82
2019-02-05T02:42:00.689Z,932.88
2019-02-05T02:43:00.708Z,932.92
2019-02-05T02:44:00.895Z,932.95
2019-02-05T02:45:00.758Z,932.95
2019-02-05T02:46:00.862Z,933.04
2019-02-05T02:47:00.874Z,933.02
2019-02-05T02:48:00.891Z,933.02
2019-02-05T02:49:00.934Z,932.98
2019-02-05T02:50:00.916Z,932.96
2019-02-05T02:51:00.816Z,932.89
2019-02-05T02:52:00.941Z,932.88
2019-02-05T02:53:00.856Z,932.86
2019-02-05T02:54:00.969Z,932.89
2019-02-05T02:55:00.989Z,932.88
2019-02-05T02:56:00.881Z,932.90
2019-02-05T02:57:04.815Z,932.92
2019-02-05T02:58:00.920Z,932.96
2019-02-05T02:59:01.074Z,933.02
2019-02-05T03:00:00.945Z,932.98
2019-02-05T03:01:00.954Z,932.98
2019-02-05T03:02:01.086Z,932.90
2019-02-05T03:03:01.095Z,932.91
2019-02-05T03:04:01.100Z,932.90
2019-02-05T03:05:01.037Z,932.90
2019-02-05T03:06:01.134Z,932.86
2019-02-05T03:07:01.164Z,932.79
2019-02-05T03:08:01.066Z,932.78
2019-02-05T03:09:01.140Z,932.71
2019-02-05T03:10:01.237Z,932.64
2019-02-05T03:11:01.208Z,932.66
2019-02-05T03:12:01.131Z,932.70
2019-02-05T03:13:01.222Z,932.70
2019-02-05T03:14:01.139Z,932.73
2019-02-05T03:15:01.143Z,932.67
2019-02-05T03:16:01.171Z,932.68
2019-02-05T03:17:01.158Z,932.70
2019-02-05T03:18:01.395Z,932.71
2019-02-05T03:19:01.313Z,932.67
2019-02-05T03:20:01.234Z,932.72
2019-02-05T03:21:01.281Z,932.75
2019-02-05T03:22:01.255Z,932.72
2019-02-05T03:23:01.424Z,932.68
2019-02-05T03:24:01.313Z,932.72
2019-02-05T03:25:01.503Z,932.72
2019-02-05T03:26:01.322Z,932.71
2019-02-05T03:27:01.292Z,932.72
2019-02-05T03:28:01.470Z,932.70
2019-02-05T03:29:01.453Z,932.72
2019-02-05T03:30:01.457Z,932.69
2019-02-05T03:31:01.416Z,932.69
2019-02-05T03:32:01.407Z,932.65
2019-02-05T03:33:01.540Z,932.62
2019-02-05T03:35:01.479Z,932.52
2019-02-05T03:36:01.425Z,932.54
2019-02-05T03:37:01.494Z,932.49
2019-02-05T03:38:01.681Z,932.53
2019-02-05T03:39:01.457Z,932.45
2019-02-05T03:40:01.597Z,932.47
2019-02-05T03:41:01.611Z,932.42
2019-02-05T03:42:01.530Z,932.43
2019-02-05T03:43:01.668Z,932.40
2019-02-05T03:44:01.531Z,932.41
2019-02-05T03:45:01.587Z,932.33
2019-02-05T03:46:01.680Z,932.35
2019-02-05T03:47:01.580Z,932.32
2019-02-05T03:48:01.670Z,932.27
2019-02-05T03:49:01.636Z,932.27
2019-02-05T03:50:01.635Z,932.26
2019-02-05T03:51:01.634Z,932.19
2019-02-05T03:52:01.645Z,932.17
2019-02-05T03:53:01.876Z,932.16
2019-02-05T03:54:01.679Z,932.11
2019-02-05T03:55:01.823Z,932.09
2019-02-05T03:56:01.738Z,932.08
2019-02-05T03:57:01.762Z,932.04
2019-02-05T03:58:01.902Z,932.05
2019-02-05T03:59:01.866Z,932.05
2019-02-05T04:00:01.760Z,932.06
2019-02-05T04:01:01.883Z,932.05
2019-02-05T04:02:01.901Z,932.03
2019-02-05T04:03:01.931Z,932.02
2019-02-05T04:04:01.850Z,932.00
2019-02-05T04:05:01.961Z,931.97
2019-02-05T04:06:01.835Z,931.95
2019-02-05T04:07:01.863Z,931.92
2019-02-05T04:08:01.969Z,931.87
2019-02-05T04:09:01.882Z,931.89
2019-02-05T04:10:02.011Z,931.88
2019-02-05T04:11:01.894Z,931.87
2019-02-05T04:12:02.045Z,931.91
2019-02-05T04:13:01.943Z,931.90
2019-02-05T04:14:02.046Z,931.96
2019-02-05T04:15:01.995Z,931.96
2019-02-05T04:16:02.006Z,931.98
2019-02-05T04:17:01.985Z,932.00
2019-02-05T04:18:02.111Z,932.01
2019-02-05T04:19:02.232Z,932.00
2019-02-05T04:20:02.034Z,932.00
2019-02-05T04:21:02.154Z,931.97
2019-02-05T04:22:02.058Z,931.93
2019-02-05T04:23:02.074Z,931.94
2019-02-05T04:24:02.170Z,931.96
2019-02-05T04:25:02.100Z,931.89
2019-02-05T04:26:02.224Z,931.86
2019-02-05T04:27:02.102Z,931.85
2019-02-05T04:28:02.127Z,931.85
2019-02-05T04:29:02.310Z,931.85
2019-02-05T04:30:02.169Z,931.82
2019-02-05T04:31:02.205Z,931.81
2019-02-05T04:32:02.249Z,931.75
2019-02-05T04:33:02.213Z,931.70
2019-02-05T04:34:02.391Z,931.71
2019-02-05T04:35:02.229Z,931.72
2019-02-05T04:36:02.361Z,931.70
2019-02-05T04:37:02.247Z,931.68
2019-02-05T04:38:02.378Z,931.64
2019-02-05T04:39:02.390Z,931.65
2019-02-05T04:40:02.420Z,931.61
2019-02-05T04:41:02.329Z,931.64
2019-02-05T04:42:02.315Z,931.62
2019-02-05T04:43:02.462Z,931.60
2019-02-05T04:44:02.396Z,931.62
2019-02-05T04:45:02.373Z,931.62
2019-02-05T04:46:02.384Z,931.62
2019-02-05T04:47:02.386Z,931.60
2019-02-05T04:48:02.617Z,931.58
2019-02-05T04:49:02.446Z,931.53
2019-02-05T04:50:02.414Z,931.58
2019-02-05T04:51:02.554Z,931.57
2019-02-05T04:52:02.457Z,931.58
2019-02-05T04:53:02.613Z,931.57
2019-02-05T04:54:02.505Z,931.61
2019-02-05T04:55:02.551Z,931.60
2019-02-05T04:56:02.548Z,931.59
2019-02-05T04:57:02.531Z,931.57
2019-02-05T04:58:02.803Z,931.49
2019-02-05T04:59:02.564Z,931.44
2019-02-05T05:00:02.584Z,931.47
2019-02-05T05:01:02.556Z,931.47
2019-02-05T05:02:02.595Z,931.40
2019-02-05T05:03:02.820Z,931.38
2019-02-05T05:04:02.608Z,931.43
2019-02-05T05:05:02.635Z,931.42
2019-02-05T05:06:02.651Z,931.40
2019-02-05T05:07:02.654Z,931.43
2019-02-05T05:08:02.846Z,931.42
2019-02-05T05:09:02.710Z,931.44
2019-02-05T05:10:02.722Z,931.44
2019-02-05T05:11:02.827Z,931.44
2019-02-05T05:12:02.759Z,931.40
2019-02-05T05:13:02.873Z,931.40
2019-02-05T05:14:02.749Z,931.37
2019-02-05T05:15:02.772Z,931.34
2019-02-05T05:16:02.821Z,931.34
2019-02-05T05:17:02.917Z,931.34
2019-02-05T05:18:02.939Z,931.37
2019-02-05T05:19:02.972Z,931.38
2019-02-05T05:20:02.950Z,931.39
2019-02-05T05:21:02.841Z,931.42
2019-02-05T05:22:02.976Z,931.40
2019-02-05T05:23:03.131Z,931.40
2019-02-05T05:24:03.022Z,931.38
2019-02-05T05:25:03.017Z,931.38
2019-02-05T05:26:02.905Z,931.35
2019-02-05T05:27:02.939Z,931.35
2019-02-05T05:28:10.007Z,931.39
2019-02-05T05:29:03.013Z,931.39
2019-02-05T05:30:03.083Z,931.43
2019-02-05T05:31:02.992Z,931.47
2019-02-05T05:32:03.104Z,931.49
2019-02-05T05:33:03.281Z,931.46
2019-02-05T05:34:03.035Z,931.50
2019-02-05T05:35:03.052Z,931.47
2019-02-05T05:36:03.068Z,931.42
2019-02-05T05:37:03.093Z,931.47
2019-02-05T05:38:03.346Z,931.39
2019-02-05T05:39:03.162Z,931.38
2019-02-05T05:40:03.129Z,931.37
2019-02-05T05:41:03.227Z,931.34
2019-02-05T05:42:03.132Z,931.31
2019-02-05T05:43:03.256Z,931.23
2019-02-05T05:44:03.184Z,931.25
2019-02-05T05:45:03.181Z,931.23
2019-02-05T05:46:03.247Z,931.21
2019-02-05T05:47:03.245Z,931.23
2019-02-05T05:48:03.300Z,931.22
2019-02-05T05:49:03.333Z,931.18
2019-02-05T05:50:03.375Z,931.17
2019-02-05T05:51:03.361Z,931.12
2019-02-05T05:52:03.252Z,931.13
2019-02-05T05:53:03.413Z,931.07
2019-02-05T05:54:03.315Z,931.06
2019-02-05T05:55:03.308Z,931.05
2019-02-05T05:56:03.304Z,931.03
2019-02-05T05:57:03.364Z,931.03
2019-02-05T05:58:03.607Z,931.05
2019-02-05T05:59:03.384Z,931.07
2019-02-05T06:00:03.391Z,931.05
2019-02-05T06:01:03.403Z,931.05
2019-02-05T06:02:03.509Z,931.06
2019-02-05T06:03:03.504Z,931.08
2019-02-05T06:04:03.542Z,931.09
2019-02-05T06:05:03.555Z,931.08
2019-02-05T06:06:03.615Z,931.02
2019-02-05T06:07:03.589Z,930.98
2019-02-05T06:08:03.728Z,930.94
2019-02-05T06:09:03.496Z,930.91
2019-02-05T06:10:06.919Z,930.92
2019-02-05T06:11:03.547Z,930.89
2019-02-05T06:12:03.530Z,930.88
2019-02-05T06:13:03.716Z,930.81
2019-02-05T06:14:03.579Z,930.82
2019-02-05T06:15:03.613Z,930.82
2019-02-05T06:16:03.589Z,930.82
2019-02-05T06:17:03.717Z,930.78
2019-02-05T06:18:03.779Z,930.79
2019-02-05T06:19:03.748Z,930.77
2019-02-05T06:20:03.688Z,930.78
2019-02-05T06:21:03.675Z,930.76
2019-02-05T06:22:03.668Z,930.79
2019-02-05T06:23:03.808Z,930.80
2019-02-05T06:24:03.874Z,930.85
2019-02-05T06:25:03.690Z,930.88
2019-02-05T06:26:03.837Z,930.88
2019-02-05T06:27:03.765Z,930.86
2019-02-05T06:28:03.856Z,930.82
2019-02-05T06:29:03.910Z,930.83
2019-02-05T06:30:03.787Z,930.83
2019-02-05T06:31:03.826Z,930.79
2019-02-05T06:32:03.919Z,930.76
2019-02-05T06:33:03.943Z,930.82
2019-02-05T06:34:04.037Z,930.80
2019-02-05T06:35:03.951Z,930.81
2019-02-05T06:36:03.969Z,930.81
2019-02-05T06:37:03.978Z,930.82
2019-02-05T06:38:03.873Z,930.84
2019-02-05T06:39:04.067Z,930.86
2019-02-05T06:40:03.917Z,930.86
2019-02-05T06:41:03.965Z,930.85
2019-02-05T06:42:03.930Z,930.87
2019-02-05T06:43:03.937Z,930.87
2019-02-05T06:44:04.097Z,930.93
2019-02-05T06:45:04.084Z,930.95
2019-02-05T06:46:03.970Z,930.91
2019-02-05T06:47:04.111Z,931.03
2019-02-05T06:48:04.058Z,931.02
2019-02-05T06:49:04.138Z,931.04
2019-02-05T06:50:04.056Z,931.04
2019-02-05T06:51:04.100Z,931.01
2019-02-05T06:52:04.093Z,930.97
2019-02-05T06:53:04.189Z,931.00
2019-02-05T06:54:04.258Z,930.97
2019-02-05T06:55:04.217Z,930.93
2019-02-05T06:56:04.123Z,930.94
2019-02-05T06:57:04.255Z,930.91
2019-02-05T06:58:04.262Z,930.87
2019-02-05T06:59:04.584Z,930.93
2019-02-05T07:00:04.157Z,930.90
2019-02-05T07:01:04.180Z,930.89
2019-02-05T07:02:04.221Z,930.88
2019-02-05T07:03:04.334Z,930.92
2019-02-05T07:04:04.315Z,930.85
2019-02-05T07:05:04.236Z,930.86
2019-02-05T07:06:04.363Z,930.83
2019-02-05T07:07:04.271Z,930.81
2019-02-05T07:08:04.390Z,930.81
2019-02-05T07:09:04.482Z,930.83
2019-02-05T07:10:04.311Z,930.85
2019-02-05T07:11:04.362Z,930.83
2019-02-05T07:12:04.340Z,930.83
2019-02-05T07:13:04.338Z,930.78
2019-02-05T07:14:04.449Z,930.79
2019-02-05T07:15:04.366Z,930.80
2019-02-05T07:16:04.410Z,930.80
2019-02-05T07:17:04.425Z,930.86
2019-02-05T07:18:04.532Z,930.84
2019-02-05T07:19:04.573Z,930.89
2019-02-05T07:20:04.560Z,930.85
2019-02-05T07:21:04.469Z,930.80
2019-02-05T07:22:04.470Z,930.85
2019-02-05T07:23:04.502Z,930.84
2019-02-05T07:24:04.605Z,930.89
2019-02-05T07:25:04.513Z,930.86
2019-02-05T07:26:04.508Z,930.81
2019-02-05T07:27:04.531Z,930.84
2019-02-05T07:28:04.562Z,930.83
2019-02-05T07:29:04.775Z,930.79
2019-02-05T07:30:04.714Z,930.81
2019-02-05T07:31:04.727Z,930.82
2019-02-05T07:32:04.652Z,930.88
2019-02-05T07:33:04.602Z,930.84
2019-02-05T07:34:04.742Z,930.82
2019-02-05T07:35:04.645Z,930.75
2019-02-05T07:36:04.658Z,930.74
2019-02-05T07:37:04.673Z,930.76
2019-02-05T07:38:04.797Z,930.74
2019-02-05T07:39:04.791Z,930.78
2019-02-05T07:40:04.702Z,930.75
2019-02-05T07:41:05.000Z,930.77
2019-02-05T07:42:04.739Z,930.76
2019-02-05T07:43:04.855Z,930.75
2019-02-05T07:44:04.757Z,930.76
2019-02-05T07:45:04.765Z,930.80
2019-02-05T07:46:05.044Z,930.78
2019-02-05T07:47:04.922Z,930.84
2019-02-05T07:48:04.850Z,930.83
2019-02-05T07:49:04.945Z,930.83
2019-02-05T07:50:04.854Z,930.83
2019-02-05T07:51:05.074Z,930.80
2019-02-05T07:52:04.847Z,930.83
2019-02-05T07:53:04.886Z,930.84
2019-02-05T07:54:04.899Z,930.85
2019-02-05T07:55:04.968Z,930.89
2019-02-05T07:56:05.055Z,930.90
2019-02-05T07:57:05.080Z,930.89
2019-02-05T07:58:04.937Z,930.92
2019-02-05T07:59:10.230Z,930.90
2019-02-05T08:00:04.992Z,930.90
2019-02-05T08:01:05.258Z,930.90
2019-02-05T08:02:05.141Z,930.91
2019-02-05T08:03:05.023Z,930.94
2019-02-05T08:04:05.040Z,930.91
2019-02-05T08:05:05.150Z,930.93
2019-02-05T08:06:05.215Z,930.96
2019-02-05T08:07:07.584Z,930.91
2019-02-05T08:08:05.083Z,930.90
2019-02-05T08:09:05.092Z,930.86
2019-02-05T08:10:05.219Z,930.89
2019-02-05T08:11:05.213Z,930.84
2019-02-05T08:12:05.164Z,930.84
2019-02-05T08:13:05.135Z,930.86
2019-02-05T08:14:06.163Z,930.87
2019-02-05T08:15:05.207Z,930.87
2019-02-05T08:16:05.293Z,930.87
2019-02-05T08:17:05.222Z,930.89
2019-02-05T08:18:05.219Z,930.83
2019-02-05T08:19:05.348Z,930.86
2019-02-05T08:20:05.292Z,930.85
2019-02-05T08:21:05.461Z,930.84
2019-02-05T08:22:05.396Z,930.80
2019-02-05T08:23:05.393Z,930.78
2019-02-05T08:24:05.304Z,930.77
2019-02-05T08:25:05.329Z,930.74
2019-02-05T08:26:05.501Z,930.74
2019-02-05T08:27:05.345Z,930.71
2019-02-05T08:28:05.458Z,930.75
2019-02-05T08:29:05.367Z,930.78
2019-02-05T08:30:05.428Z,930.82
2019-02-05T08:31:05.655Z,930.85
2019-02-05T08:32:05.450Z,930.93
2019-02-05T08:33:05.399Z,930.96
2019-02-05T08:34:05.503Z,930.99
2019-02-05T08:35:05.519Z,931.05
2019-02-05T08:36:05.653Z,931.07
2019-02-05T08:37:05.585Z,931.05
2019-02-05T08:38:05.493Z,931.09
2019-02-05T08:39:05.481Z,931.09
2019-02-05T08:40:05.520Z,931.07
2019-02-05T08:41:05.675Z,931.06
2019-02-05T08:42:05.558Z,931.08
2019-02-05T08:43:05.545Z,931.08
2019-02-05T08:44:05.568Z,931.07
2019-02-05T08:45:05.574Z,931.08
2019-02-05T08:46:05.739Z,931.12
2019-02-05T08:47:05.587Z,931.13
2019-02-05T08:48:05.749Z,931.12
2019-02-05T08:49:05.649Z,931.12
2019-02-05T08:50:05.651Z,931.15
2019-02-05T08:51:05.758Z,931.17
2019-02-05T08:52:05.789Z,931.16
2019-02-05T08:53:05.709Z,931.16
2019-02-05T08:54:05.752Z,931.20
2019-02-05T08:55:05.722Z,931.19
2019-02-05T08:56:05.956Z,931.19
2019-02-05T08:57:05.779Z,931.18
2019-02-05T08:58:05.877Z,931.20
2019-02-05T08:59:05.770Z,931.21
2019-02-05T09:00:05.900Z,931.23
2019-02-05T09:01:05.893Z,931.22
2019-02-05T09:02:05.861Z,931.23
2019-02-05T09:03:05.851Z,931.25
2019-02-05T09:04:05.884Z,931.23
2019-02-05T09:05:05.882Z,931.23
2019-02-05T09:06:06.007Z,931.26
2019-02-05T09:07:05.901Z,931.23
2019-02-05T09:08:06.023Z,931.24
2019-02-05T09:09:05.928Z,931.23
2019-02-05T09:10:05.935Z,931.25
2019-02-05T09:11:06.051Z,931.28
2019-02-05T09:12:06.071Z,931.28
2019-02-05T09:13:05.977Z,931.29
2019-02-05T09:14:11.058Z,931.30
2019-02-05T09:15:06.013Z,931.31
2019-02-05T09:16:06.126Z,931.30
2019-02-05T09:17:06.152Z,931.35
2019-02-05T09:18:06.062Z,931.31
2019-02-05T09:19:06.177Z,931.28
2019-02-05T09:20:06.070Z,931.30
2019-02-05T09:21:06.296Z,931.32
2019-02-05T09:22:06.217Z,931.35
2019-02-05T09:23:06.134Z,931.39
2019-02-05T09:24:06.238Z,931.44
2019-02-05T09:25:06.153Z,931.46
2019-02-05T09:26:06.268Z,931.48
2019-02-05T09:27:06.193Z,931.49
2019-02-05T09:28:06.168Z,931.53
2019-02-05T09:29:06.208Z,931.52
2019-02-05T09:30:06.206Z,931.51
2019-02-05T09:31:06.435Z,931.53
2019-02-05T09:32:06.353Z,931.51
2019-02-05T09:33:06.234Z,931.52
2019-02-05T09:34:06.293Z,931.56
2019-02-05T09:35:06.278Z,931.64
2019-02-05T09:36:06.336Z,931.62
2019-02-05T09:37:06.306Z,931.62
2019-02-05T09:38:06.314Z,931.62
2019-02-05T09:39:06.363Z,931.64
2019-02-05T09:40:06.476Z,931.62
2019-02-05T09:41:06.471Z,931.54
2019-02-05T09:42:06.498Z,931.55
2019-02-05T09:43:06.408Z,931.53
2019-02-05T09:44:06.403Z,931.55
2019-02-05T09:45:06.425Z,931.58
2019-02-05T09:46:06.659Z,931.57
2019-02-05T09:47:06.476Z,931.56
2019-02-05T09:48:06.471Z,931.64
2019-02-05T09:49:06.483Z,931.64
2019-02-05T09:50:06.495Z,931.67
2019-02-05T09:51:06.506Z,931.68
2019-02-05T09:52:06.686Z,931.72
2019-02-05T09:53:06.658Z,931.72
2019-02-05T09:54:06.673Z,931.71
2019-02-05T09:55:06.590Z,931.71
2019-02-05T09:56:06.621Z,931.73
2019-02-05T09:57:06.818Z,931.71
2019-02-05T09:58:06.634Z,931.74
2019-02-05T09:59:06.633Z,931.73
2019-02-05T10:00:06.643Z,931.73
2019-02-05T10:01:06.680Z,931.76
2019-02-05T10:02:06.713Z,931.76
2019-02-05T10:03:06.813Z,931.80
2019-02-05T10:04:06.714Z,931.80
2019-02-05T10:05:06.710Z,931.78
2019-02-05T10:06:06.750Z,931.74
2019-02-05T10:07:06.843Z,931.72
2019-02-05T10:08:06.751Z,931.76
2019-02-05T10:09:06.774Z,931.80
2019-02-05T10:10:06.788Z,931.79
2019-02-05T10:11:06.819Z,931.84
2019-02-05T10:12:07.049Z,931.82
2019-02-05T10:13:06.980Z,931.79
2019-02-05T10:14:06.931Z,931.79
2019-02-05T10:15:06.988Z,931.82
2019-02-05T10:16:06.902Z,931.75
2019-02-05T10:17:07.115Z,931.75
2019-02-05T10:18:06.971Z,931.74
2019-02-05T10:19:07.058Z,931.73
2019-02-05T10:20:06.928Z,931.70
2019-02-05T10:21:06.950Z,931.65
2019-02-05T10:22:07.190Z,931.61
2019-02-05T10:23:06.971Z,931.62
2019-02-05T10:24:07.221Z,931.64
2019-02-05T10:25:07.018Z,931.64
2019-02-05T10:26:07.151Z,931.64
2019-02-05T10:27:07.268Z,931.67
2019-02-05T10:28:07.058Z,931.66
2019-02-05T10:29:07.101Z,931.72
2019-02-05T10:30:07.158Z,931.69
2019-02-05T10:31:07.137Z,931.75
2019-02-05T10:32:07.304Z,931.76
2019-02-05T10:33:07.172Z,931.76
2019-02-05T10:34:07.156Z,931.81
2019-02-05T10:35:07.241Z,931.84
2019-02-05T10:36:07.188Z,931.82
2019-02-05T10:37:07.291Z,931.85
2019-02-05T10:38:07.224Z,931.87
2019-02-05T10:39:07.345Z,931.85
2019-02-05T10:40:07.240Z,931.86
2019-02-05T10:41:07.263Z,931.86
2019-02-05T10:42:07.429Z,931.85
2019-02-05T10:43:07.284Z,931.83
2019-02-05T10:44:07.311Z,931.82
2019-02-05T10:45:07.439Z,931.85
2019-02-05T10:46:07.450Z,931.83
2019-02-05T10:47:07.504Z,931.83
2019-02-05T10:48:07.490Z,931.85
2019-02-05T10:49:07.383Z,931.87
2019-02-05T10:50:07.524Z,931.86
2019-02-05T10:51:07.528Z,931.89
2019-02-05T10:52:07.592Z,931.88
2019-02-05T10:53:07.451Z,931.88
2019-02-05T10:54:07.457Z,931.90
2019-02-05T10:55:07.574Z,931.92
2019-02-05T10:56:07.505Z,931.93
2019-02-05T10:57:07.503Z,931.91
2019-02-05T10:58:07.516Z,931.92
2019-02-05T10:59:07.568Z,931.94
2019-02-05T11:00:09.212Z,931.97
2019-02-05T11:01:07.583Z,931.95
2019-02-05T11:02:07.697Z,932.01
2019-02-05T11:03:07.713Z,932.00
2019-02-05T11:04:07.726Z,932.01
2019-02-05T11:05:07.766Z,932.01
2019-02-05T11:06:07.651Z,931.99
2019-02-05T11:07:07.659Z,932.00
2019-02-05T11:08:07.666Z,931.98
2019-02-05T11:09:07.699Z,931.98
2019-02-05T11:10:07.922Z,931.96
2019-02-05T11:11:07.717Z,931.98
2019-02-05T11:12:07.849Z,931.96
2019-02-05T11:13:07.776Z,931.98
2019-02-05T11:14:07.887Z,931.99
2019-02-05T11:15:08.049Z,931.95
2019-02-05T11:16:07.810Z,931.96
2019-02-05T11:17:07.810Z,931.98
2019-02-05T11:18:07.830Z,932.00
2019-02-05T11:19:07.846Z,931.99
2019-02-05T11:20:08.071Z,931.98
2019-02-05T11:21:07.994Z,931.99
2019-02-05T11:22:08.020Z,931.99
2019-02-05T11:23:07.893Z,932.01
2019-02-05T11:24:07.937Z,932.02
2019-02-05T11:25:08.023Z,932.00
2019-02-05T11:26:07.958Z,932.02
2019-02-05T11:27:07.975Z,932.00
2019-02-05T11:28:07.999Z,932.02
2019-02-05T11:29:08.008Z,932.02
2019-02-05T11:30:19.650Z,932.06
2019-02-05T11:31:08.040Z,932.07
2019-02-05T11:32:08.056Z,932.04
2019-02-05T11:33:08.074Z,932.05
2019-02-05T11:34:08.067Z,932.02
2019-02-05T11:35:08.199Z,932.06
2019-02-05T11:36:08.231Z,932.05
2019-02-05T11:37:08.149Z,932.03
2019-02-05T11:38:08.172Z,932.04
2019-02-05T11:39:08.175Z,932.05
2019-02-05T11:40:08.291Z,932.03
2019-02-05T11:41:08.216Z,932.00
2019-02-05T11:42:08.329Z,932.04
2019-02-05T11:43:08.350Z,932.06
2019-02-05T11:44:08.230Z,932.04
2019-02-05T11:45:08.434Z,932.13
2019-02-05T11:46:08.404Z,932.11
2019-02-05T11:47:08.292Z,932.11
2019-02-05T11:48:08.436Z,932.11
2019-02-05T11:49:08.446Z,932.13
2019-02-05T11:50:08.341Z,932.09
2019-02-05T11:51:08.368Z,932.14
2019-02-05T11:52:09.890Z,932.15
2019-02-05T11:53:08.392Z,932.13
2019-02-05T11:54:08.507Z,932.12
2019-02-05T11:55:08.548Z,932.17
2019-02-05T11:56:08.442Z,932.17
2019-02-05T11:57:08.581Z,932.13
2019-02-05T11:58:08.599Z,932.15
2019-02-05T11:59:08.506Z,932.16
2019-02-05T12:00:08.731Z,932.20
2019-02-05T12:01:08.532Z,932.16
2019-02-05T12:02:08.553Z,932.16
2019-02-05T12:03:08.689Z,932.29
2019-02-05T12:04:08.580Z,932.20
2019-02-05T12:05:08.714Z,932.22
2019-02-05T12:06:08.730Z,932.18
2019-02-05T12:07:08.630Z,932.18
2019-02-05T12:08:08.655Z,932.22
2019-02-05T12:09:08.789Z,932.20
2019-02-05T12:10:08.786Z,932.21
2019-02-05T12:11:08.725Z,932.24
2019-02-05T12:12:08.847Z,932.29
2019-02-05T12:13:08.739Z,932.35
2019-02-05T12:14:08.742Z,932.28
2019-02-05T12:15:08.991Z,932.25
2019-02-05T12:16:08.910Z,932.20
2019-02-05T12:17:08.828Z,932.21
2019-02-05T12:18:08.841Z,932.24
2019-02-05T12:19:08.840Z,932.18
2019-02-05T12:20:09.130Z,932.16
2019-02-05T12:21:08.876Z,932.17
2019-02-05T12:22:09.023Z,932.19
2019-02-05T12:23:08.985Z,932.18
2019-02-05T12:24:08.954Z,932.20
2019-02-05T12:25:09.101Z,932.21
2019-02-05T12:26:09.088Z,932.25
2019-02-05T12:27:09.005Z,932.27
2019-02-05T12:28:09.028Z,932.31
2019-02-05T12:29:09.061Z,932.33
2019-02-05T12:30:09.151Z,932.33